sensor_id;sensor_type;location;lat;lon;timestamp;temperature;humidity
68842;SHT35;55849;48.482;2.332;2023-05-10T00:01:57;15.68;78.35
68842;SHT35;55849;48.482;2.332;2023-05-10T00:04:59;15.66;78.70
68842;SHT35;55849;48.482;2.332;2023-05-10T00:08:00;15.65;78.03
68842;SHT35;55849;48.482;2.332;2023-05-10T00:11:02;15.63;79.70
68842;SHT35;55849;48.482;2.332;2023-05-10T00:14:05;15.61;78.43
68842;SHT35;55849;48.482;2.332;2023-05-10T00:17:07;15.54;77.79
68842;SHT35;55849;48.482;2.332;2023-05-10T00:20:10;15.51;77.67
68842;SHT35;55849;48.482;2.332;2023-05-10T00:23:12;15.44;78.58
68842;SHT35;55849;48.482;2.332;2023-05-10T00:26:13;15.38;79.44
68842;SHT35;55849;48.482;2.332;2023-05-10T00:29:18;15.37;78.23
68842;SHT35;55849;48.482;2.332;2023-05-10T00:32:19;15.35;78.19
68842;SHT35;55849;48.482;2.332;2023-05-10T00:35:21;15.31;77.81
68842;SHT35;55849;48.482;2.332;2023-05-10T00:38:23;15.30;77.54
68842;SHT35;55849;48.482;2.332;2023-05-10T00:41:24;15.23;76.95
68842;SHT35;55849;48.482;2.332;2023-05-10T00:44:27;15.19;78.22
68842;SHT35;55849;48.482;2.332;2023-05-10T00:47:29;15.11;78.51
68842;SHT35;55849;48.482;2.332;2023-05-10T00:50:34;15.07;77.49
68842;SHT35;55849;48.482;2.332;2023-05-10T00:53:36;15.03;78.95
68842;SHT35;55849;48.482;2.332;2023-05-10T00:56:38;15.04;80.40
68842;SHT35;55849;48.482;2.332;2023-05-10T00:59:41;15.02;77.52
68842;SHT35;55849;48.482;2.332;2023-05-10T01:02:44;14.96;77.60
68842;SHT35;55849;48.482;2.332;2023-05-10T01:05:46;14.92;77.99
68842;SHT35;55849;48.482;2.332;2023-05-10T01:08:48;14.92;79.33
68842;SHT35;55849;48.482;2.332;2023-05-10T01:11:49;14.90;79.22
68842;SHT35;55849;48.482;2.332;2023-05-10T01:14:53;14.92;79.28
68842;SHT35;55849;48.482;2.332;2023-05-10T01:17:55;14.92;79.23
68842;SHT35;55849;48.482;2.332;2023-05-10T01:21:06;14.90;78.87
68842;SHT35;55849;48.482;2.332;2023-05-10T01:24:37;14.92;78.02
68842;SHT35;55849;48.482;2.332;2023-05-10T01:31:25;14.90;77.33
68842;SHT35;55849;48.482;2.332;2023-05-10T01:34:35;14.86;78.54
68842;SHT35;55849;48.482;2.332;2023-05-10T01:37:41;14.85;78.28
68842;SHT35;55849;48.482;2.332;2023-05-10T01:40:51;14.81;77.65
68842;SHT35;55849;48.482;2.332;2023-05-10T01:44:02;14.81;78.62
68842;SHT35;55849;48.482;2.332;2023-05-10T01:47:09;14.78;79.05
68842;SHT35;55849;48.482;2.332;2023-05-10T01:50:18;14.79;78.24
68842;SHT35;55849;48.482;2.332;2023-05-10T01:53:21;14.81;79.40
68842;SHT35;55849;48.482;2.332;2023-05-10T01:56:26;14.79;79.21
68842;SHT35;55849;48.482;2.332;2023-05-10T01:59:34;14.76;78.41
68842;SHT35;55849;48.482;2.332;2023-05-10T02:02:40;14.76;78.40
68842;SHT35;55849;48.482;2.332;2023-05-10T02:05:45;14.74;77.74
68842;SHT35;55849;48.482;2.332;2023-05-10T02:08:49;14.74;79.00
68842;SHT35;55849;48.482;2.332;2023-05-10T02:11:51;14.74;78.69
68842;SHT35;55849;48.482;2.332;2023-05-10T02:14:54;14.72;78.60
68842;SHT35;55849;48.482;2.332;2023-05-10T02:17:57;14.74;77.52
68842;SHT35;55849;48.482;2.332;2023-05-10T02:21:02;14.72;79.06
68842;SHT35;55849;48.482;2.332;2023-05-10T02:24:04;14.74;77.24
68842;SHT35;55849;48.482;2.332;2023-05-10T02:27:07;14.68;77.40
68842;SHT35;55849;48.482;2.332;2023-05-10T02:30:10;14.67;77.09
68842;SHT35;55849;48.482;2.332;2023-05-10T02:33:13;14.65;76.97
68842;SHT35;55849;48.482;2.332;2023-05-10T02:36:18;14.63;77.85
68842;SHT35;55849;48.482;2.332;2023-05-10T02:39:23;14.61;77.36
68842;SHT35;55849;48.482;2.332;2023-05-10T02:42:27;14.63;78.54
68842;SHT35;55849;48.482;2.332;2023-05-10T02:45:32;14.58;77.22
68842;SHT35;55849;48.482;2.332;2023-05-10T02:48:34;14.58;78.80
68842;SHT35;55849;48.482;2.332;2023-05-10T02:51:41;14.57;78.55
68842;SHT35;55849;48.482;2.332;2023-05-10T02:54:45;14.57;77.97
68842;SHT35;55849;48.482;2.332;2023-05-10T02:57:51;14.58;78.71
68842;SHT35;55849;48.482;2.332;2023-05-10T03:00:55;14.57;79.32
68842;SHT35;55849;48.482;2.332;2023-05-10T03:03:56;14.57;78.79
68842;SHT35;55849;48.482;2.332;2023-05-10T03:06:59;14.54;79.35
68842;SHT35;55849;48.482;2.332;2023-05-10T03:10:02;14.58;80.23
68842;SHT35;55849;48.482;2.332;2023-05-10T03:13:09;14.55;79.15
68842;SHT35;55849;48.482;2.332;2023-05-10T03:16:15;14.60;78.66
68842;SHT35;55849;48.482;2.332;2023-05-10T03:19:24;14.57;78.03
68842;SHT35;55849;48.482;2.332;2023-05-10T03:22:32;14.54;79.37
68842;SHT35;55849;48.482;2.332;2023-05-10T03:25:35;14.54;79.44
68842;SHT35;55849;48.482;2.332;2023-05-10T03:28:38;14.57;78.95
68842;SHT35;55849;48.482;2.332;2023-05-10T03:31:40;14.55;79.51
68842;SHT35;55849;48.482;2.332;2023-05-10T03:34:42;14.61;79.66
68842;SHT35;55849;48.482;2.332;2023-05-10T03:37:45;14.60;79.05
68842;SHT35;55849;48.482;2.332;2023-05-10T03:40:47;14.60;79.03
68842;SHT35;55849;48.482;2.332;2023-05-10T03:43:49;14.61;78.78
68842;SHT35;55849;48.482;2.332;2023-05-10T03:46:50;14.65;78.75
68842;SHT35;55849;48.482;2.332;2023-05-10T03:49:52;14.67;78.83
68842;SHT35;55849;48.482;2.332;2023-05-10T03:52:55;14.67;78.72
68842;SHT35;55849;48.482;2.332;2023-05-10T03:55:57;14.67;80.07
68842;SHT35;55849;48.482;2.332;2023-05-10T03:58:59;14.68;78.38
68842;SHT35;55849;48.482;2.332;2023-05-10T04:02:00;14.65;78.48
68842;SHT35;55849;48.482;2.332;2023-05-10T04:05:03;14.63;78.95
68842;SHT35;55849;48.482;2.332;2023-05-10T04:08:06;14.65;80.71
68842;SHT35;55849;48.482;2.332;2023-05-10T04:11:09;14.64;80.47
68842;SHT35;55849;48.482;2.332;2023-05-10T04:14:11;14.68;80.31
68842;SHT35;55849;48.482;2.332;2023-05-10T04:17:13;14.65;80.20
68842;SHT35;55849;48.482;2.332;2023-05-10T04:20:14;14.65;79.91
68842;SHT35;55849;48.482;2.332;2023-05-10T04:23:17;14.69;81.03
68842;SHT35;55849;48.482;2.332;2023-05-10T04:26:19;14.69;80.45
68842;SHT35;55849;48.482;2.332;2023-05-10T04:29:22;14.71;80.94
68842;SHT35;55849;48.482;2.332;2023-05-10T04:32:24;14.74;81.39
68842;SHT35;55849;48.482;2.332;2023-05-10T04:35:25;14.74;79.82
68842;SHT35;55849;48.482;2.332;2023-05-10T04:38:28;14.75;80.66
68842;SHT35;55849;48.482;2.332;2023-05-10T04:41:30;14.72;79.92
68842;SHT35;55849;48.482;2.332;2023-05-10T04:44:32;14.72;79.80
68842;SHT35;55849;48.482;2.332;2023-05-10T04:47:34;14.71;78.90
68842;SHT35;55849;48.482;2.332;2023-05-10T04:50:37;14.69;80.15
68842;SHT35;55849;48.482;2.332;2023-05-10T04:53:40;14.68;79.07
68842;SHT35;55849;48.482;2.332;2023-05-10T04:56:41;14.67;80.18
68842;SHT35;55849;48.482;2.332;2023-05-10T04:59:43;14.64;80.01
68842;SHT35;55849;48.482;2.332;2023-05-10T05:02:45;14.64;79.33
68842;SHT35;55849;48.482;2.332;2023-05-10T05:05:46;14.61;80.10
68842;SHT35;55849;48.482;2.332;2023-05-10T05:08:49;14.63;80.47
68842;SHT35;55849;48.482;2.332;2023-05-10T05:11:51;14.61;79.38
68842;SHT35;55849;48.482;2.332;2023-05-10T05:14:53;14.61;79.56
68842;SHT35;55849;48.482;2.332;2023-05-10T05:17:54;14.60;79.37
68842;SHT35;55849;48.482;2.332;2023-05-10T05:20:56;14.61;79.39
68842;SHT35;55849;48.482;2.332;2023-05-10T05:23:59;14.61;79.71
68842;SHT35;55849;48.482;2.332;2023-05-10T05:27:01;14.58;79.66
68842;SHT35;55849;48.482;2.332;2023-05-10T05:30:03;14.58;79.40
68842;SHT35;55849;48.482;2.332;2023-05-10T05:33:05;14.57;80.49
68842;SHT35;55849;48.482;2.332;2023-05-10T05:36:07;14.57;79.78
68842;SHT35;55849;48.482;2.332;2023-05-10T05:39:10;14.55;79.92
68842;SHT35;55849;48.482;2.332;2023-05-10T05:42:12;14.55;79.64
68842;SHT35;55849;48.482;2.332;2023-05-10T05:45:15;14.55;80.66
68842;SHT35;55849;48.482;2.332;2023-05-10T05:48:16;14.57;80.40
68842;SHT35;55849;48.482;2.332;2023-05-10T05:51:18;14.57;80.18
68842;SHT35;55849;48.482;2.332;2023-05-10T05:54:21;14.58;80.64
68842;SHT35;55849;48.482;2.332;2023-05-10T05:57:23;14.60;80.39
68842;SHT35;55849;48.482;2.332;2023-05-10T06:00:26;14.60;80.37
68842;SHT35;55849;48.482;2.332;2023-05-10T06:03:28;14.60;81.25
68842;SHT35;55849;48.482;2.332;2023-05-10T06:06:30;14.65;81.26
68842;SHT35;55849;48.482;2.332;2023-05-10T06:09:33;14.67;80.72
68842;SHT35;55849;48.482;2.332;2023-05-10T06:12:35;14.68;80.18
68842;SHT35;55849;48.482;2.332;2023-05-10T06:15:37;14.67;80.17
68842;SHT35;55849;48.482;2.332;2023-05-10T06:18:39;14.68;80.32
68842;SHT35;55849;48.482;2.332;2023-05-10T06:21:40;14.68;80.19
68842;SHT35;55849;48.482;2.332;2023-05-10T06:24:43;14.69;80.36
68842;SHT35;55849;48.482;2.332;2023-05-10T06:27:45;14.72;80.54
68842;SHT35;55849;48.482;2.332;2023-05-10T06:30:46;14.76;80.16
68842;SHT35;55849;48.482;2.332;2023-05-10T06:33:48;14.81;80.01
68842;SHT35;55849;48.482;2.332;2023-05-10T06:36:50;14.83;79.71
68842;SHT35;55849;48.482;2.332;2023-05-10T06:39:53;14.82;79.76
68842;SHT35;55849;48.482;2.332;2023-05-10T06:42:54;14.89;79.59
68842;SHT35;55849;48.482;2.332;2023-05-10T06:45:56;14.85;80.35
68842;SHT35;55849;48.482;2.332;2023-05-10T06:48:58;14.88;80.18
68842;SHT35;55849;48.482;2.332;2023-05-10T06:52:00;14.90;80.05
68842;SHT35;55849;48.482;2.332;2023-05-10T06:55:03;14.92;79.79
68842;SHT35;55849;48.482;2.332;2023-05-10T06:58:05;14.93;79.91
68842;SHT35;55849;48.482;2.332;2023-05-10T07:01:07;14.95;79.58
68842;SHT35;55849;48.482;2.332;2023-05-10T07:04:09;14.98;79.73
68842;SHT35;55849;48.482;2.332;2023-05-10T07:07:10;14.99;79.76
68842;SHT35;55849;48.482;2.332;2023-05-10T07:10:13;14.96;80.01
68842;SHT35;55849;48.482;2.332;2023-05-10T07:13:15;14.98;80.11
68842;SHT35;55849;48.482;2.332;2023-05-10T07:16:17;14.99;80.78
68842;SHT35;55849;48.482;2.332;2023-05-10T07:19:18;15.04;80.66
68842;SHT35;55849;48.482;2.332;2023-05-10T07:22:20;15.07;80.74
68842;SHT35;55849;48.482;2.332;2023-05-10T07:25:23;15.09;80.42
68842;SHT35;55849;48.482;2.332;2023-05-10T07:28:25;15.13;80.06
68842;SHT35;55849;48.482;2.332;2023-05-10T07:31:27;15.14;80.27
68842;SHT35;55849;48.482;2.332;2023-05-10T07:34:28;15.13;80.41
68842;SHT35;55849;48.482;2.332;2023-05-10T07:37:30;15.14;80.67
68842;SHT35;55849;48.482;2.332;2023-05-10T07:40:33;15.16;80.22
68842;SHT35;55849;48.482;2.332;2023-05-10T07:43:35;15.13;80.87
68842;SHT35;55849;48.482;2.332;2023-05-10T07:46:36;15.16;81.49
68842;SHT35;55849;48.482;2.332;2023-05-10T07:49:38;15.19;81.14
68842;SHT35;55849;48.482;2.332;2023-05-10T07:52:40;15.19;80.86
68842;SHT35;55849;48.482;2.332;2023-05-10T07:55:43;15.20;81.16
68842;SHT35;55849;48.482;2.332;2023-05-10T07:58:45;15.23;81.01
68842;SHT35;55849;48.482;2.332;2023-05-10T08:01:46;15.26;81.08
68842;SHT35;55849;48.482;2.332;2023-05-10T08:04:48;15.22;80.69
68842;SHT35;55849;48.482;2.332;2023-05-10T08:07:50;15.23;81.05
68842;SHT35;55849;48.482;2.332;2023-05-10T08:10:52;15.24;80.73
68842;SHT35;55849;48.482;2.332;2023-05-10T08:13:54;15.26;81.40
68842;SHT35;55849;48.482;2.332;2023-05-10T08:16:56;15.27;81.81
68842;SHT35;55849;48.482;2.332;2023-05-10T08:19:57;15.28;81.24
68842;SHT35;55849;48.482;2.332;2023-05-10T08:22:59;15.33;81.24
68842;SHT35;55849;48.482;2.332;2023-05-10T08:26:02;15.35;81.24
68842;SHT35;55849;48.482;2.332;2023-05-10T08:29:03;15.37;80.73
68842;SHT35;55849;48.482;2.332;2023-05-10T08:32:05;15.31;80.03
68842;SHT35;55849;48.482;2.332;2023-05-10T08:35:07;15.28;79.91
68842;SHT35;55849;48.482;2.332;2023-05-10T08:38:08;15.28;80.63
68842;SHT35;55849;48.482;2.332;2023-05-10T08:41:12;15.28;80.45
68842;SHT35;55849;48.482;2.332;2023-05-10T08:44:15;15.30;81.00
68842;SHT35;55849;48.482;2.332;2023-05-10T08:47:18;15.30;81.32
68842;SHT35;55849;48.482;2.332;2023-05-10T08:50:20;15.31;81.21
68842;SHT35;55849;48.482;2.332;2023-05-10T08:53:24;15.33;80.21
68842;SHT35;55849;48.482;2.332;2023-05-10T08:56:28;15.33;80.56
68842;SHT35;55849;48.482;2.332;2023-05-10T08:59:29;15.37;80.56
68842;SHT35;55849;48.482;2.332;2023-05-10T09:02:31;15.38;80.78
68842;SHT35;55849;48.482;2.332;2023-05-10T09:05:33;15.42;80.21
68842;SHT35;55849;48.482;2.332;2023-05-10T09:08:36;15.45;80.75
68842;SHT35;55849;48.482;2.332;2023-05-10T09:11:40;15.48;81.13
68842;SHT35;55849;48.482;2.332;2023-05-10T09:14:42;15.55;80.47
68842;SHT35;55849;48.482;2.332;2023-05-10T09:17:45;15.55;80.78
68842;SHT35;55849;48.482;2.332;2023-05-10T09:20:48;15.57;79.91
68842;SHT35;55849;48.482;2.332;2023-05-10T09:23:49;15.58;80.06
68842;SHT35;55849;48.482;2.332;2023-05-10T09:26:56;15.62;80.14
68842;SHT35;55849;48.482;2.332;2023-05-10T09:29:58;15.61;79.82
68842;SHT35;55849;48.482;2.332;2023-05-10T09:33:00;15.63;79.34
68842;SHT35;55849;48.482;2.332;2023-05-10T09:36:06;15.65;79.32
68842;SHT35;55849;48.482;2.332;2023-05-10T09:39:08;15.68;78.90
68842;SHT35;55849;48.482;2.332;2023-05-10T09:42:11;15.68;79.68
68842;SHT35;55849;48.482;2.332;2023-05-10T09:45:13;15.66;78.46
68842;SHT35;55849;48.482;2.332;2023-05-10T09:48:14;15.68;79.05
68842;SHT35;55849;48.482;2.332;2023-05-10T09:51:19;15.69;79.54
68842;SHT35;55849;48.482;2.332;2023-05-10T09:54:21;15.70;79.01
68842;SHT35;55849;48.482;2.332;2023-05-10T09:57:25;15.72;79.67
68842;SHT35;55849;48.482;2.332;2023-05-10T10:00:27;15.75;78.65
68842;SHT35;55849;48.482;2.332;2023-05-10T10:03:29;15.72;79.83
68842;SHT35;55849;48.482;2.332;2023-05-10T10:06:35;15.76;79.35
68842;SHT35;55849;48.482;2.332;2023-05-10T10:09:38;15.79;79.15
68842;SHT35;55849;48.482;2.332;2023-05-10T10:12:41;15.79;78.37
68842;SHT35;55849;48.482;2.332;2023-05-10T10:15:43;15.79;78.53
68842;SHT35;55849;48.482;2.332;2023-05-10T10:18:47;15.78;78.97
68842;SHT35;55849;48.482;2.332;2023-05-10T10:21:49;15.79;79.55
68842;SHT35;55849;48.482;2.332;2023-05-10T10:24:51;15.85;78.44
68842;SHT35;55849;48.482;2.332;2023-05-10T10:28:07;15.86;78.50
68842;SHT35;55849;48.482;2.332;2023-05-10T10:31:17;15.89;77.76
68842;SHT35;55849;48.482;2.332;2023-05-10T10:34:25;15.92;78.09
68842;SHT35;55849;48.482;2.332;2023-05-10T10:37:43;15.96;78.56
68842;SHT35;55849;48.482;2.332;2023-05-10T10:40:45;16.02;78.46
68842;SHT35;55849;48.482;2.332;2023-05-10T10:43:48;16.03;78.55
68842;SHT35;55849;48.482;2.332;2023-05-10T10:47:01;16.13;78.37
68842;SHT35;55849;48.482;2.332;2023-05-10T10:50:05;16.20;78.50
68842;SHT35;55849;48.482;2.332;2023-05-10T10:53:10;16.28;78.44
68842;SHT35;55849;48.482;2.332;2023-05-10T10:56:13;16.35;77.97
68842;SHT35;55849;48.482;2.332;2023-05-10T10:59:26;16.45;78.52
68842;SHT35;55849;48.482;2.332;2023-05-10T11:02:43;16.55;78.01
68842;SHT35;55849;48.482;2.332;2023-05-10T11:05:47;16.61;77.45
68842;SHT35;55849;48.482;2.332;2023-05-10T11:08:49;16.66;77.14
68842;SHT35;55849;48.482;2.332;2023-05-10T11:11:54;16.69;75.44
68842;SHT35;55849;48.482;2.332;2023-05-10T11:14:58;16.72;76.82
68842;SHT35;55849;48.482;2.332;2023-05-10T11:18:16;16.79;76.59
68842;SHT35;55849;48.482;2.332;2023-05-10T11:21:18;16.84;76.69
68842;SHT35;55849;48.482;2.332;2023-05-10T11:24:21;16.89;76.57
68842;SHT35;55849;48.482;2.332;2023-05-10T11:27:23;16.94;76.25
68842;SHT35;55849;48.482;2.332;2023-05-10T11:30:26;17.00;75.30
68842;SHT35;55849;48.482;2.332;2023-05-10T11:33:28;17.03;75.76
68842;SHT35;55849;48.482;2.332;2023-05-10T11:36:33;17.07;75.63
68842;SHT35;55849;48.482;2.332;2023-05-10T11:39:35;17.13;75.70
68842;SHT35;55849;48.482;2.332;2023-05-10T11:42:37;17.18;74.81
68842;SHT35;55849;48.482;2.332;2023-05-10T11:45:41;17.25;75.61
68842;SHT35;55849;48.482;2.332;2023-05-10T11:48:42;17.34;76.35
68842;SHT35;55849;48.482;2.332;2023-05-10T11:51:44;17.48;75.24
68842;SHT35;55849;48.482;2.332;2023-05-10T11:54:51;17.53;74.97
68842;SHT35;55849;48.482;2.332;2023-05-10T11:57:53;17.63;74.91
68842;SHT35;55849;48.482;2.332;2023-05-10T12:00:56;17.69;75.78
68842;SHT35;55849;48.482;2.332;2023-05-10T15:56:10;19.53;74.99
68842;SHT35;55849;48.482;2.332;2023-05-10T15:59:12;19.40;73.53
68842;SHT35;55849;48.482;2.332;2023-05-10T16:02:14;19.26;74.76
68842;SHT35;55849;48.482;2.332;2023-05-10T16:05:17;19.18;75.02
68842;SHT35;55849;48.482;2.332;2023-05-10T16:08:19;19.14;76.11
68842;SHT35;55849;48.482;2.332;2023-05-10T16:11:22;19.10;76.98
68842;SHT35;55849;48.482;2.332;2023-05-10T16:14:24;19.05;76.84
68842;SHT35;55849;48.482;2.332;2023-05-10T16:17:25;19.01;77.64
68842;SHT35;55849;48.482;2.332;2023-05-10T16:20:27;19.01;78.61
68842;SHT35;55849;48.482;2.332;2023-05-10T16:23:29;19.02;78.66
68842;SHT35;55849;48.482;2.332;2023-05-10T16:26:32;19.10;78.47
68842;SHT35;55849;48.482;2.332;2023-05-10T16:29:39;19.19;78.14
68842;SHT35;55849;48.482;2.332;2023-05-10T16:32:41;19.30;76.51
68842;SHT35;55849;48.482;2.332;2023-05-10T16:35:43;19.37;76.69
68842;SHT35;55849;48.482;2.332;2023-05-10T16:38:45;19.40;75.46
68842;SHT35;55849;48.482;2.332;2023-05-10T16:41:48;19.37;75.00
68842;SHT35;55849;48.482;2.332;2023-05-10T16:44:50;19.35;74.44
68842;SHT35;55849;48.482;2.332;2023-05-10T16:47:52;19.30;74.48
68842;SHT35;55849;48.482;2.332;2023-05-10T16:50:54;19.22;74.97
68842;SHT35;55849;48.482;2.332;2023-05-10T16:53:55;19.19;74.79
68842;SHT35;55849;48.482;2.332;2023-05-10T16:56:59;19.10;75.07
68842;SHT35;55849;48.482;2.332;2023-05-10T17:00:05;19.08;76.04
68842;SHT35;55849;48.482;2.332;2023-05-10T17:03:07;19.10;74.81
68842;SHT35;55849;48.482;2.332;2023-05-10T17:06:10;19.11;75.37
68842;SHT35;55849;48.482;2.332;2023-05-10T17:09:11;19.19;74.80
68842;SHT35;55849;48.482;2.332;2023-05-10T17:12:14;19.23;76.05
68842;SHT35;55849;48.482;2.332;2023-05-10T17:15:16;19.25;75.45
68842;SHT35;55849;48.482;2.332;2023-05-10T17:18:18;19.26;73.71
68842;SHT35;55849;48.482;2.332;2023-05-10T17:21:20;19.26;74.96
68842;SHT35;55849;48.482;2.332;2023-05-10T17:24:21;19.30;74.95
68842;SHT35;55849;48.482;2.332;2023-05-10T17:27:24;19.26;74.42
68842;SHT35;55849;48.482;2.332;2023-05-10T17:30:27;19.28;75.95
68842;SHT35;55849;48.482;2.332;2023-05-10T17:33:31;19.28;74.38
68842;SHT35;55849;48.482;2.332;2023-05-10T17:36:33;19.28;74.74
68842;SHT35;55849;48.482;2.332;2023-05-10T17:39:34;19.25;75.43
68842;SHT35;55849;48.482;2.332;2023-05-10T17:42:37;19.22;74.68
68842;SHT35;55849;48.482;2.332;2023-05-10T17:45:39;19.19;75.31
68842;SHT35;55849;48.482;2.332;2023-05-10T17:48:40;19.19;76.07
68842;SHT35;55849;48.482;2.332;2023-05-10T17:51:42;19.11;73.98
68842;SHT35;55849;48.482;2.332;2023-05-10T17:54:47;19.05;74.02
68842;SHT35;55849;48.482;2.332;2023-05-10T17:57:50;19.00;73.39
68842;SHT35;55849;48.482;2.332;2023-05-10T18:00:51;18.91;75.13
68842;SHT35;55849;48.482;2.332;2023-05-10T18:03:53;18.85;75.74
68842;SHT35;55849;48.482;2.332;2023-05-10T18:06:55;18.83;73.47
68842;SHT35;55849;48.482;2.332;2023-05-10T18:10:00;18.76;73.50
68842;SHT35;55849;48.482;2.332;2023-05-10T18:13:03;18.70;74.39
68842;SHT35;55849;48.482;2.332;2023-05-10T18:16:05;18.64;72.93
68842;SHT35;55849;48.482;2.332;2023-05-10T18:19:08;18.59;74.23
68842;SHT35;55849;48.482;2.332;2023-05-10T18:22:10;18.53;74.97
68842;SHT35;55849;48.482;2.332;2023-05-10T18:25:11;18.49;74.77
68842;SHT35;55849;48.482;2.332;2023-05-10T18:28:14;18.46;75.45
68842;SHT35;55849;48.482;2.332;2023-05-10T18:31:16;18.42;76.05
68842;SHT35;55849;48.482;2.332;2023-05-10T18:34:18;18.41;76.08
68842;SHT35;55849;48.482;2.332;2023-05-10T18:37:20;18.33;76.53
68842;SHT35;55849;48.482;2.332;2023-05-10T18:40:22;18.32;77.02
68842;SHT35;55849;48.482;2.332;2023-05-10T18:43:25;18.29;74.60
68842;SHT35;55849;48.482;2.332;2023-05-10T18:46:26;18.28;76.98
68842;SHT35;55849;48.482;2.332;2023-05-10T18:49:28;18.22;78.25
68842;SHT35;55849;48.482;2.332;2023-05-10T18:52:30;18.18;77.69
68842;SHT35;55849;48.482;2.332;2023-05-10T18:55:31;18.17;77.73
68842;SHT35;55849;48.482;2.332;2023-05-10T18:58:34;18.09;77.34
68842;SHT35;55849;48.482;2.332;2023-05-10T19:01:36;18.05;77.96
68842;SHT35;55849;48.482;2.332;2023-05-10T19:04:37;17.98;78.10
68842;SHT35;55849;48.482;2.332;2023-05-10T19:07:39;17.97;78.35
68842;SHT35;55849;48.482;2.332;2023-05-10T19:10:43;17.91;78.14
68842;SHT35;55849;48.482;2.332;2023-05-10T19:13:46;17.90;77.13
68842;SHT35;55849;48.482;2.332;2023-05-10T19:16:48;17.83;77.78
68842;SHT35;55849;48.482;2.332;2023-05-10T19:19:49;17.82;78.02
68842;SHT35;55849;48.482;2.332;2023-05-10T19:22:51;17.77;78.23
68842;SHT35;55849;48.482;2.332;2023-05-10T19:25:53;17.74;78.10
68842;SHT35;55849;48.482;2.332;2023-05-10T19:28:56;17.70;77.34
68842;SHT35;55849;48.482;2.332;2023-05-10T19:31:57;17.66;77.75
68842;SHT35;55849;48.482;2.332;2023-05-10T19:34:59;17.59;78.07
68842;SHT35;55849;48.482;2.332;2023-05-10T19:38:01;17.55;78.11
68842;SHT35;55849;48.482;2.332;2023-05-10T19:41:03;17.55;78.73
68842;SHT35;55849;48.482;2.332;2023-05-10T19:44:06;17.50;78.19
68842;SHT35;55849;48.482;2.332;2023-05-10T19:47:07;17.42;78.66
68842;SHT35;55849;48.482;2.332;2023-05-10T19:50:11;17.38;77.83
68842;SHT35;55849;48.482;2.332;2023-05-10T19:53:13;17.36;78.45
68842;SHT35;55849;48.482;2.332;2023-05-10T19:56:14;17.34;78.16
68842;SHT35;55849;48.482;2.332;2023-05-10T19:59:18;17.28;78.39
68842;SHT35;55849;48.482;2.332;2023-05-10T20:02:20;17.25;78.23
68842;SHT35;55849;48.482;2.332;2023-05-10T20:05:22;17.20;78.19
68842;SHT35;55849;48.482;2.332;2023-05-10T20:08:24;17.15;79.11
68842;SHT35;55849;48.482;2.332;2023-05-10T20:11:26;17.15;78.17
68842;SHT35;55849;48.482;2.332;2023-05-10T20:14:29;17.08;78.14
68842;SHT35;55849;48.482;2.332;2023-05-10T20:17:30;17.07;78.07
68842;SHT35;55849;48.482;2.332;2023-05-10T20:20:32;17.04;78.51
68842;SHT35;55849;48.482;2.332;2023-05-10T20:23:34;17.02;79.18
68842;SHT35;55849;48.482;2.332;2023-05-10T20:26:35;16.94;79.27
68842;SHT35;55849;48.482;2.332;2023-05-10T20:29:38;16.96;79.17
68842;SHT35;55849;48.482;2.332;2023-05-10T20:32:40;16.94;79.73
68842;SHT35;55849;48.482;2.332;2023-05-10T20:35:41;16.94;79.53
68842;SHT35;55849;48.482;2.332;2023-05-10T20:38:43;16.93;80.20
68842;SHT35;55849;48.482;2.332;2023-05-10T20:41:45;16.91;79.43
68842;SHT35;55849;48.482;2.332;2023-05-10T20:44:48;16.89;79.92
68842;SHT35;55849;48.482;2.332;2023-05-10T20:47:50;16.89;79.38
68842;SHT35;55849;48.482;2.332;2023-05-10T20:50:51;16.90;80.04
68842;SHT35;55849;48.482;2.332;2023-05-10T20:53:53;16.90;80.46
68842;SHT35;55849;48.482;2.332;2023-05-10T20:56:56;16.87;80.07
68842;SHT35;55849;48.482;2.332;2023-05-10T20:59:59;16.84;79.56
68842;SHT35;55849;48.482;2.332;2023-05-10T21:03:01;16.79;79.72
68842;SHT35;55849;48.482;2.332;2023-05-10T21:06:02;16.77;80.11
68842;SHT35;55849;48.482;2.332;2023-05-10T21:09:04;16.77;80.16
68842;SHT35;55849;48.482;2.332;2023-05-10T21:12:07;16.76;80.43
68842;SHT35;55849;48.482;2.332;2023-05-10T21:15:11;16.75;80.07
68842;SHT35;55849;48.482;2.332;2023-05-10T21:18:12;16.72;79.04
68842;SHT35;55849;48.482;2.332;2023-05-10T21:21:14;16.70;79.99
68842;SHT35;55849;48.482;2.332;2023-05-10T21:24:15;16.70;80.46
68842;SHT35;55849;48.482;2.332;2023-05-10T21:27:17;16.69;80.64
68842;SHT35;55849;48.482;2.332;2023-05-10T21:30:20;16.70;80.54
68842;SHT35;55849;48.482;2.332;2023-05-10T21:33:22;16.66;80.29
68842;SHT35;55849;48.482;2.332;2023-05-10T21:36:24;16.65;80.46
68842;SHT35;55849;48.482;2.332;2023-05-10T21:39:26;16.66;80.87
68842;SHT35;55849;48.482;2.332;2023-05-10T21:42:27;16.63;80.83
68842;SHT35;55849;48.482;2.332;2023-05-10T21:45:32;16.65;80.99
68842;SHT35;55849;48.482;2.332;2023-05-10T21:48:33;16.63;80.86
68842;SHT35;55849;48.482;2.332;2023-05-10T21:51:35;16.61;80.93
68842;SHT35;55849;48.482;2.332;2023-05-10T21:54:36;16.62;80.60
68842;SHT35;55849;48.482;2.332;2023-05-10T21:57:38;16.62;80.26
68842;SHT35;55849;48.482;2.332;2023-05-10T22:00:41;16.59;80.52
68842;SHT35;55849;48.482;2.332;2023-05-10T22:03:43;16.58;81.03
68842;SHT35;55849;48.482;2.332;2023-05-10T22:06:45;16.58;80.21
68842;SHT35;55849;48.482;2.332;2023-05-10T22:09:48;16.56;80.81
68842;SHT35;55849;48.482;2.332;2023-05-10T22:12:49;16.55;81.40
68842;SHT35;55849;48.482;2.332;2023-05-10T22:15:53;16.55;80.56
68842;SHT35;55849;48.482;2.332;2023-05-10T22:18:55;16.54;80.54
68842;SHT35;55849;48.482;2.332;2023-05-10T22:21:56;16.55;80.91
68842;SHT35;55849;48.482;2.332;2023-05-10T22:24:58;16.55;81.40
68842;SHT35;55849;48.482;2.332;2023-05-10T22:27:59;16.51;81.19
68842;SHT35;55849;48.482;2.332;2023-05-10T22:31:02;16.52;81.01
68842;SHT35;55849;48.482;2.332;2023-05-10T22:34:09;16.49;80.24
68842;SHT35;55849;48.482;2.332;2023-05-10T22:37:10;16.51;81.17
68842;SHT35;55849;48.482;2.332;2023-05-10T22:40:14;16.48;80.77
68842;SHT35;55849;48.482;2.332;2023-05-10T22:43:16;16.48;80.99
68842;SHT35;55849;48.482;2.332;2023-05-10T22:46:19;16.47;81.35
68842;SHT35;55849;48.482;2.332;2023-05-10T22:49:20;16.47;80.82
68842;SHT35;55849;48.482;2.332;2023-05-10T22:52:22;16.42;81.39
68842;SHT35;55849;48.482;2.332;2023-05-10T22:55:24;16.47;80.85
68842;SHT35;55849;48.482;2.332;2023-05-10T22:58:26;16.42;81.24
68842;SHT35;55849;48.482;2.332;2023-05-10T23:01:29;16.40;80.45
68842;SHT35;55849;48.482;2.332;2023-05-10T23:04:30;16.44;81.07
68842;SHT35;55849;48.482;2.332;2023-05-10T23:07:33;16.42;81.53
68842;SHT35;55849;48.482;2.332;2023-05-10T23:10:34;16.42;81.52